createdAt,value
2018-06-02T00:01:45.229Z,2.80
2018-06-02T00:04:14.066Z,4.60
2018-06-02T00:06:43.675Z,3.70
2018-06-02T00:09:12.650Z,3.47
2018-06-02T00:11:41.769Z,3.93
2018-06-02T00:14:10.631Z,3.70
2018-06-02T00:16:39.475Z,4.00
2018-06-02T00:19:08.301Z,5.87
2018-06-02T00:21:37.132Z,5.90
2018-06-02T00:24:06.781Z,7.33
2018-06-02T00:26:35.662Z,6.23
2018-06-02T00:29:04.524Z,6.87
2018-06-02T00:31:33.463Z,7.00
2018-06-02T00:34:02.345Z,8.63
2018-06-02T00:36:31.223Z,9.23
2018-06-02T00:39:00.024Z,12.33
2018-06-02T00:41:28.809Z,10.23
2018-06-02T00:43:57.592Z,10.07
2018-06-02T00:46:26.690Z,13.27
2018-06-02T00:48:55.571Z,10.40
2018-06-02T00:51:24.423Z,12.60
2018-06-02T00:53:54.335Z,14.20
2018-06-02T00:56:23.985Z,15.10
2018-06-02T00:58:53.415Z,18.37
2018-06-02T01:01:23.034Z,21.13
2018-06-02T01:03:51.891Z,18.03
2018-06-02T01:06:20.750Z,25.90
2018-06-02T01:08:49.609Z,42.63
2018-06-02T01:11:22.400Z,58.87
2018-06-02T01:13:51.990Z,76.47
2018-06-02T01:16:20.819Z,83.00
2018-06-02T01:18:49.668Z,87.60
2018-06-02T01:21:18.503Z,78.20
2018-06-02T01:23:47.328Z,88.30
2018-06-02T01:26:16.209Z,84.57
2018-06-02T01:28:45.119Z,81.80
2018-06-02T01:31:14.006Z,86.90
2018-06-02T01:33:43.653Z,75.00
2018-06-02T01:36:12.518Z,85.77
2018-06-02T01:38:42.122Z,80.10
2018-06-02T01:41:11.749Z,76.23
2018-06-02T01:43:40.606Z,82.47
2018-06-02T01:46:09.488Z,81.77
2018-06-02T01:48:38.379Z,75.63
2018-06-02T01:51:07.493Z,84.00
2018-06-02T01:53:36.382Z,84.10
2018-06-02T01:56:05.267Z,74.17
2018-06-02T01:58:34.931Z,73.37
2018-06-02T02:01:08.934Z,80.40
2018-06-02T02:03:38.568Z,72.77
2018-06-02T02:06:07.422Z,77.77
2018-06-02T02:08:37.073Z,77.87
2018-06-02T02:11:05.916Z,73.97
2018-06-02T02:13:36.221Z,78.43
2018-06-02T02:16:06.875Z,77.83
2018-06-02T02:18:36.592Z,69.30
2018-06-02T02:21:06.244Z,72.10
2018-06-02T02:23:35.365Z,75.57
2018-06-02T02:27:23.583Z,69.00
2018-06-02T02:29:52.493Z,64.80
2018-06-02T02:32:21.350Z,69.97
2018-06-02T02:34:50.259Z,74.80
2018-06-02T02:37:19.086Z,77.57
2018-06-02T02:39:48.706Z,75.30
2018-06-02T02:42:18.385Z,82.25
2018-06-02T02:44:47.238Z,67.70
2018-06-02T02:47:18.100Z,68.18
2018-06-02T02:49:46.945Z,69.53
2018-06-02T02:52:16.597Z,67.53
2018-06-02T02:54:45.501Z,61.03
2018-06-02T02:57:14.384Z,67.67
2018-06-02T02:59:43.309Z,72.50
2018-06-02T03:02:13.216Z,65.17
2018-06-02T03:04:42.142Z,63.30
2018-06-02T03:07:10.997Z,71.20
2018-06-02T03:09:39.866Z,67.93
2018-06-02T03:12:08.730Z,60.37
2018-06-02T03:14:37.570Z,70.30
2018-06-02T03:17:07.541Z,76.97
2018-06-02T03:19:36.726Z,65.75
2018-06-02T03:22:07.099Z,65.07
2018-06-02T03:24:35.942Z,63.80
2018-06-02T03:27:04.771Z,62.85
2018-06-02T03:29:33.586Z,65.50
2018-06-02T03:32:03.263Z,69.62
2018-06-02T03:34:32.106Z,64.37
2018-06-02T03:37:01.193Z,62.60
2018-06-02T03:39:30.854Z,66.25
2018-06-02T03:41:59.669Z,64.60
2018-06-02T03:44:29.304Z,70.45
2018-06-02T03:47:03.074Z,63.87
2018-06-02T03:49:32.758Z,65.05
2018-06-02T03:52:01.599Z,62.33
2018-06-02T03:54:30.467Z,61.28
2018-06-02T03:57:00.080Z,63.58
2018-06-02T04:00:32.424Z,61.55
2018-06-02T04:03:01.265Z,62.53
2018-06-02T04:05:31.436Z,56.47
2018-06-02T04:08:00.281Z,56.35
2018-06-02T04:10:29.090Z,58.25
2018-06-02T04:12:57.951Z,59.42
2018-06-02T04:15:27.518Z,56.80
2018-06-02T04:17:56.870Z,58.20
2018-06-02T04:20:25.667Z,51.95
2018-06-02T04:22:54.481Z,51.13
2018-06-02T04:25:23.305Z,48.60
2018-06-02T04:27:52.216Z,45.97
2018-06-02T04:30:21.819Z,42.33
2018-06-02T04:32:51.432Z,37.42
2018-06-02T04:35:21.018Z,43.00
2018-06-02T04:37:49.832Z,42.17
2018-06-02T04:40:18.905Z,40.42
2018-06-02T04:42:48.541Z,40.88
2018-06-02T04:45:17.639Z,37.50
2018-06-02T04:47:47.237Z,34.72
2018-06-02T04:50:19.370Z,36.85
2018-06-02T04:52:48.237Z,33.72
2018-06-02T04:55:17.048Z,34.00
2018-06-02T04:57:45.948Z,36.40
2018-06-02T05:00:14.792Z,36.23
2018-06-02T05:02:43.699Z,34.75
2018-06-02T05:05:12.507Z,33.43
2018-06-02T05:07:41.460Z,33.65
2018-06-02T05:10:10.316Z,28.83
2018-06-02T05:12:39.987Z,30.77
2018-06-02T05:15:08.856Z,23.60
2018-06-02T05:17:37.664Z,26.08
2018-06-02T05:20:06.873Z,27.87
2018-06-02T05:22:35.749Z,24.45
2018-06-02T05:25:04.591Z,25.45
2018-06-02T05:27:33.411Z,26.48
2018-06-02T05:30:02.262Z,25.30
2018-06-02T05:32:31.930Z,21.83
2018-06-02T05:35:00.828Z,22.33
2018-06-02T05:37:29.717Z,22.02
2018-06-02T05:39:58.629Z,24.73
2018-06-02T05:42:27.503Z,20.80
2018-06-02T05:44:56.373Z,23.33
2018-06-02T05:47:25.236Z,23.33
2018-06-02T05:49:54.114Z,19.87
2018-06-02T05:52:22.989Z,25.37
2018-06-02T05:54:51.992Z,23.62
2018-06-02T05:57:21.864Z,21.85
2018-06-02T05:59:51.014Z,19.40
2018-06-02T06:02:25.758Z,20.93
2018-06-02T06:04:54.636Z,22.98
2018-06-02T06:07:24.534Z,20.83
2018-06-02T06:09:53.426Z,28.23
2018-06-02T06:12:23.304Z,25.42
2018-06-02T06:14:52.225Z,23.90
2018-06-02T06:17:21.992Z,25.85
2018-06-02T06:19:50.908Z,28.52
2018-06-02T06:22:19.825Z,27.52
2018-06-02T06:24:49.888Z,29.92
2018-06-02T06:27:18.771Z,27.25
2018-06-02T06:29:47.721Z,28.35
2018-06-02T06:32:17.637Z,32.22
2018-06-02T06:34:53.880Z,30.33
2018-06-02T06:37:30.909Z,29.80
2018-06-02T06:39:59.852Z,27.80
2018-06-02T06:42:28.804Z,30.98
2018-06-02T06:44:57.908Z,30.42
2018-06-02T06:47:27.693Z,26.55
2018-06-02T06:49:56.644Z,30.37
2018-06-02T06:52:26.879Z,29.42
2018-06-02T06:54:56.623Z,24.92
2018-06-02T06:57:26.228Z,22.87
2018-06-02T06:59:55.339Z,26.00
2018-06-02T07:02:29.733Z,26.12
2018-06-02T07:04:59.367Z,26.08
2018-06-02T07:07:28.413Z,28.52
2018-06-02T07:09:58.522Z,27.83
2018-06-02T07:12:27.531Z,24.90
2018-06-02T07:14:57.184Z,25.37
2018-06-02T07:17:27.173Z,25.30
2018-06-02T07:19:56.180Z,29.65
2018-06-02T07:22:25.996Z,27.55
2018-06-02T07:24:55.795Z,25.77
2018-06-02T07:27:24.821Z,30.52
2018-06-02T07:29:54.690Z,25.70
2018-06-02T07:32:28.420Z,25.45
2018-06-02T07:34:57.400Z,25.73
2018-06-02T07:37:26.605Z,26.52
2018-06-02T07:39:56.304Z,25.75
2018-06-02T07:42:25.276Z,26.65
2018-06-02T07:44:56.039Z,29.30
2018-06-02T07:47:27.211Z,23.80
2018-06-02T07:49:56.887Z,28.17
2018-06-02T07:52:25.928Z,28.67
2018-06-02T07:54:54.896Z,25.15
2018-06-02T07:57:23.876Z,27.15
2018-06-02T07:59:52.856Z,24.08
2018-06-02T08:02:21.764Z,28.42
2018-06-02T08:04:51.507Z,23.67
2018-06-02T08:07:21.086Z,25.48
2018-06-02T08:09:50.830Z,27.45
2018-06-02T08:12:19.954Z,25.25
2018-06-02T08:14:49.825Z,24.23
2018-06-02T08:17:18.821Z,22.05
2018-06-02T08:19:47.849Z,19.55
2018-06-02T08:22:22.913Z,26.65
2018-06-02T08:24:53.021Z,21.80
2018-06-02T08:27:22.727Z,19.35
2018-06-02T08:29:51.601Z,19.90
2018-06-02T08:32:21.648Z,19.05
2018-06-02T08:34:51.556Z,19.08
2018-06-02T08:37:20.503Z,17.30
2018-06-02T08:39:49.641Z,17.80
2018-06-02T08:42:18.938Z,17.60
2018-06-02T08:44:49.581Z,19.58
2018-06-02T08:47:19.221Z,21.27
2018-06-02T08:49:48.429Z,16.98
2018-06-02T08:52:17.733Z,17.83
2018-06-02T08:54:46.670Z,17.65
2018-06-02T08:57:16.735Z,17.17
2018-06-02T08:59:45.861Z,18.00
2018-06-02T09:02:17.161Z,16.12
2018-06-02T09:04:46.977Z,20.58
2018-06-02T09:07:16.660Z,18.42
2018-06-02T09:09:46.388Z,20.73
2018-06-02T09:12:16.310Z,20.17
2018-06-02T09:14:45.406Z,16.52
2018-06-02T09:17:15.447Z,18.23
2018-06-02T09:19:44.437Z,13.80
2018-06-02T09:22:13.481Z,16.42
2018-06-02T09:24:43.313Z,17.47
2018-06-02T09:27:14.380Z,17.70
2018-06-02T09:29:44.294Z,16.10
2018-06-02T09:32:13.376Z,15.75
2018-06-02T09:34:42.658Z,18.15
2018-06-02T09:37:11.901Z,13.43
2018-06-02T09:39:40.954Z,17.52
2018-06-02T09:42:10.246Z,17.20
2018-06-02T09:44:40.722Z,15.80
2018-06-02T09:47:10.370Z,13.07
2018-06-02T09:49:39.544Z,16.95
2018-06-02T09:52:08.860Z,15.70
2018-06-02T09:54:39.196Z,15.00
2018-06-02T09:57:08.348Z,17.60
2018-06-02T09:59:37.394Z,17.87
2018-06-02T10:02:06.436Z,13.30
2018-06-02T10:04:35.559Z,12.77
2018-06-02T10:07:04.647Z,11.73
2018-06-02T10:09:34.309Z,12.47
2018-06-02T10:12:04.144Z,13.77
2018-06-02T10:14:33.576Z,13.27
2018-06-02T10:17:05.984Z,14.03
2018-06-02T10:19:34.961Z,17.50
2018-06-02T10:22:04.153Z,14.63
2018-06-02T10:24:33.270Z,13.17
2018-06-02T10:27:02.664Z,14.73
2018-06-02T10:29:33.385Z,15.50
2018-06-02T10:32:03.666Z,13.13
2018-06-02T10:34:33.005Z,13.73
2018-06-02T10:37:02.815Z,13.53
2018-06-02T10:39:32.540Z,17.60
2018-06-02T10:42:02.744Z,14.87
2018-06-02T10:44:32.539Z,16.40
2018-06-02T10:47:02.537Z,13.45
2018-06-02T10:49:31.708Z,12.87
2018-06-02T10:52:01.035Z,12.97
2018-06-02T10:54:31.053Z,11.70
2018-06-02T10:57:00.120Z,14.00
2018-06-02T10:59:29.521Z,12.37
2018-06-02T11:01:58.901Z,9.67
2018-06-02T11:04:28.677Z,11.30
2018-06-02T11:06:59.184Z,12.80
2018-06-02T11:09:28.329Z,11.27
2018-06-02T11:12:04.672Z,10.77
2018-06-02T11:14:34.445Z,10.80
2018-06-02T11:17:03.686Z,10.43
2018-06-02T11:19:33.383Z,9.93
2018-06-02T11:23:24.135Z,9.50
2018-06-02T11:25:53.965Z,12.93
2018-06-02T11:28:23.855Z,11.30
2018-06-02T11:30:53.692Z,11.40
2018-06-02T11:33:22.681Z,11.90
2018-06-02T11:35:51.704Z,10.03
2018-06-02T11:38:21.868Z,12.10
2018-06-02T11:40:50.803Z,12.87
2018-06-02T11:43:20.478Z,9.90
2018-06-02T11:45:49.481Z,12.77
2018-06-02T11:48:18.523Z,12.57
2018-06-02T11:50:49.351Z,10.77
2018-06-02T11:53:18.503Z,10.70
2018-06-02T11:55:48.517Z,11.50
